createdAt,value
2018-05-10T00:01:35.244Z,34.50
2018-05-10T00:04:02.726Z,33.83
2018-05-10T00:06:30.953Z,35.53
2018-05-10T00:08:58.464Z,35.40
2018-05-10T00:11:26.041Z,34.83
2018-05-10T00:13:54.282Z,36.83
2018-05-10T00:16:21.774Z,37.27
2018-05-10T00:18:50.002Z,35.53
2018-05-10T00:21:18.996Z,39.03
2018-05-10T00:23:47.213Z,36.63
2018-05-10T00:26:14.686Z,36.73
2018-05-10T00:28:42.166Z,38.97
2018-05-10T00:31:09.643Z,35.23
2018-05-10T00:33:37.140Z,36.90
2018-05-10T00:36:04.610Z,35.63
2018-05-10T00:38:32.110Z,34.03
2018-05-10T00:40:59.578Z,35.57
2018-05-10T00:43:27.829Z,32.80
2018-05-10T00:45:55.326Z,31.67
2018-05-10T00:48:23.561Z,34.00
2018-05-10T00:50:51.072Z,32.23
2018-05-10T00:53:18.576Z,33.80
2018-05-10T00:55:46.061Z,35.37
2018-05-10T00:58:14.381Z,30.83
2018-05-10T01:00:41.903Z,33.03
2018-05-10T01:03:09.416Z,33.20
2018-05-10T01:05:36.918Z,33.03
2018-05-10T01:08:05.208Z,34.07
2018-05-10T01:10:32.802Z,33.63
2018-05-10T01:13:00.312Z,29.10
2018-05-10T01:15:28.561Z,33.07
2018-05-10T01:17:56.062Z,37.27
2018-05-10T01:20:23.557Z,38.27
2018-05-10T01:22:51.057Z,34.23
2018-05-10T01:25:19.347Z,39.33
2018-05-10T01:27:46.841Z,36.90
2018-05-10T01:30:14.372Z,34.13
2018-05-10T01:32:41.843Z,36.60
2018-05-10T01:35:21.463Z,36.83
2018-05-10T01:37:49.224Z,35.47
2018-05-10T01:40:16.703Z,31.67
2018-05-10T01:42:44.189Z,33.63
2018-05-10T01:45:11.676Z,32.40
2018-05-10T01:47:39.951Z,31.67
2018-05-10T01:50:08.370Z,30.13
2018-05-10T01:52:35.862Z,29.30
2018-05-10T01:55:03.338Z,31.17
2018-05-10T01:57:31.739Z,32.30
2018-05-10T01:59:59.247Z,27.93
2018-05-10T02:02:26.789Z,29.10
2018-05-10T02:04:55.061Z,27.00
2018-05-10T02:07:22.546Z,27.40
2018-05-10T02:09:50.110Z,27.97
2018-05-10T02:12:18.411Z,28.20
2018-05-10T02:14:46.056Z,27.53
2018-05-10T02:17:13.597Z,24.97
2018-05-10T02:19:41.856Z,22.53
2018-05-10T02:22:09.716Z,23.43
2018-05-10T02:24:37.225Z,23.97
2018-05-10T02:27:04.710Z,22.67
2018-05-10T02:29:32.358Z,20.20
2018-05-10T02:31:59.905Z,20.50
2018-05-10T02:34:27.462Z,20.43
2018-05-10T02:36:54.948Z,19.77
2018-05-10T02:39:24.271Z,17.70
2018-05-10T02:41:51.731Z,16.17
2018-05-10T02:44:19.999Z,15.90
2018-05-10T02:46:49.021Z,15.73
2018-05-10T02:49:16.513Z,15.67
2018-05-10T02:51:44.032Z,13.43
2018-05-10T02:54:12.296Z,11.27
2018-05-10T02:56:40.621Z,11.10
2018-05-10T02:59:08.354Z,10.23
2018-05-10T03:01:35.820Z,9.67
2018-05-10T03:04:03.419Z,10.87
2018-05-10T03:06:31.066Z,9.90
2018-05-10T03:08:58.793Z,10.90
2018-05-10T03:11:26.348Z,11.07
2018-05-10T03:13:53.821Z,11.87
2018-05-10T03:16:21.603Z,12.13
2018-05-10T03:18:49.245Z,12.03
2018-05-10T03:21:16.755Z,11.37
2018-05-10T03:23:45.024Z,11.27
2018-05-10T03:26:12.569Z,11.53
2018-05-10T03:28:40.195Z,13.30
2018-05-10T03:31:07.708Z,14.03
2018-05-10T03:33:36.141Z,14.37
2018-05-10T03:36:03.633Z,17.23
2018-05-10T03:38:31.162Z,18.97
2018-05-10T03:40:58.784Z,18.67
2018-05-10T03:43:26.293Z,22.80
2018-05-10T03:45:53.797Z,25.60
2018-05-10T03:48:21.608Z,28.77
2018-05-10T03:50:49.229Z,28.63
2018-05-10T03:53:16.970Z,30.43
2018-05-10T03:55:45.289Z,26.10
2018-05-10T03:58:12.809Z,28.90
2018-05-10T04:00:41.308Z,32.30
2018-05-10T04:06:20.380Z,32.60
2018-05-10T04:09:00.902Z,33.67
2018-05-10T04:11:28.800Z,32.37
2018-05-10T04:13:58.076Z,32.23
2018-05-10T04:16:25.698Z,30.03
2018-05-10T04:18:53.261Z,30.97
2018-05-10T04:21:20.816Z,30.40
2018-05-10T04:23:50.109Z,32.23
2018-05-10T04:26:17.719Z,33.60
2018-05-10T04:28:45.201Z,32.47
2018-05-10T04:31:12.905Z,31.33
2018-05-10T04:33:41.637Z,29.60
2018-05-10T04:36:09.172Z,31.77
2018-05-10T04:38:36.734Z,30.93
2018-05-10T04:41:04.377Z,30.23
2018-05-10T04:43:32.651Z,29.80
2018-05-10T04:46:00.155Z,28.13
2018-05-10T04:48:27.660Z,29.50
2018-05-10T04:50:55.266Z,30.23
2018-05-10T04:53:22.920Z,30.23
2018-05-10T04:55:50.566Z,28.17
2018-05-10T04:58:18.069Z,26.87
2018-05-10T05:00:45.673Z,24.63
2018-05-10T05:03:13.389Z,24.40
2018-05-10T05:05:44.296Z,24.10
2018-05-10T05:08:12.648Z,24.50
2018-05-10T05:10:40.506Z,21.70
2018-05-10T05:13:08.001Z,22.97
2018-05-10T05:15:35.889Z,23.97
2018-05-10T05:18:03.457Z,26.30
2018-05-10T05:20:33.310Z,22.13
2018-05-10T05:23:01.238Z,23.93
2018-05-10T05:25:30.843Z,20.80
2018-05-10T05:27:59.084Z,22.87
2018-05-10T05:30:26.728Z,21.30
2018-05-10T05:32:54.246Z,22.17
2018-05-10T05:35:22.516Z,19.23
2018-05-10T05:37:50.748Z,19.80
2018-05-10T05:40:18.368Z,17.33
2018-05-10T05:42:45.893Z,15.67
2018-05-10T05:45:13.583Z,16.00
2018-05-10T05:47:41.341Z,15.87
2018-05-10T05:50:09.817Z,14.43
2018-05-10T05:52:37.305Z,13.87
2018-05-10T05:55:05.238Z,12.77
2018-05-10T05:57:32.741Z,12.43
2018-05-10T06:00:00.229Z,12.30
2018-05-10T06:02:27.724Z,12.03
2018-05-10T06:04:55.214Z,11.67
2018-05-10T06:07:23.168Z,12.57
2018-05-10T06:09:50.817Z,13.47
2018-05-10T06:12:18.325Z,14.20
2018-05-10T06:14:45.966Z,12.20
2018-05-10T06:17:13.538Z,11.77
2018-05-10T06:19:41.027Z,12.07
2018-05-10T06:22:08.553Z,11.80
2018-05-10T06:24:37.852Z,12.07
2018-05-10T06:27:05.579Z,12.60
2018-05-10T06:29:33.061Z,13.20
2018-05-10T06:32:00.558Z,14.03
2018-05-10T06:34:28.071Z,13.77
2018-05-10T06:36:57.636Z,12.40
2018-05-10T06:39:25.249Z,12.73
2018-05-10T06:41:52.898Z,15.17
2018-05-10T06:44:20.555Z,13.47
2018-05-10T06:46:48.479Z,12.03
2018-05-10T06:49:16.077Z,14.90
2018-05-10T06:51:43.587Z,14.97
2018-05-10T06:54:11.287Z,14.37
2018-05-10T06:56:39.948Z,14.17
2018-05-10T06:59:08.528Z,14.27
2018-05-10T07:01:36.168Z,13.30
2018-05-10T07:04:03.946Z,14.90
2018-05-10T07:06:31.427Z,14.50
2018-05-10T07:09:00.250Z,12.97
2018-05-10T07:11:29.077Z,13.10
2018-05-10T07:13:57.154Z,13.37
2018-05-10T07:16:24.935Z,12.90
2018-05-10T07:18:52.792Z,14.07
2018-05-10T07:21:20.527Z,12.90
2018-05-10T07:23:48.156Z,11.73
2018-05-10T07:26:16.408Z,14.00
2018-05-10T07:28:44.713Z,11.90
2018-05-10T07:31:13.148Z,13.97
2018-05-10T07:33:40.858Z,11.87
2018-05-10T07:36:09.245Z,13.50
2018-05-10T07:38:37.497Z,12.77
2018-05-10T07:41:04.984Z,13.57
2018-05-10T07:43:32.454Z,12.60
2018-05-10T07:45:59.948Z,12.03
2018-05-10T07:48:27.438Z,12.17
2018-05-10T07:50:55.690Z,13.30
2018-05-10T07:53:23.195Z,13.63
2018-05-10T07:55:50.693Z,12.07
2018-05-10T07:58:18.165Z,14.63
2018-05-10T08:00:45.659Z,12.63
2018-05-10T08:03:13.292Z,14.10
2018-05-10T08:05:41.655Z,11.80
2018-05-10T08:08:09.162Z,12.10
2018-05-10T08:10:36.667Z,13.37
2018-05-10T08:13:04.171Z,12.47
2018-05-10T08:15:31.978Z,11.90
2018-05-10T08:17:59.452Z,11.03
2018-05-10T08:20:27.706Z,11.13
2018-05-10T08:22:55.284Z,11.83
2018-05-10T08:25:22.766Z,12.23
2018-05-10T08:27:50.441Z,12.03
2018-05-10T08:30:18.011Z,11.53
2018-05-10T08:32:46.257Z,14.93
2018-05-10T08:35:13.832Z,11.33
2018-05-10T08:37:41.329Z,11.73
2018-05-10T08:40:08.817Z,13.70
2018-05-10T08:42:37.936Z,13.63
2018-05-10T08:45:05.583Z,15.67
2018-05-10T08:47:33.093Z,12.73
2018-05-10T08:50:01.701Z,13.57
2018-05-10T08:52:29.982Z,12.97
2018-05-10T08:54:58.240Z,12.27
2018-05-10T08:57:25.772Z,14.00
2018-05-10T08:59:53.497Z,12.37
2018-05-10T09:02:20.998Z,11.57
2018-05-10T09:04:48.481Z,10.23
2018-05-10T09:07:16.794Z,9.60
2018-05-10T09:09:44.428Z,6.63
2018-05-10T09:12:12.101Z,6.80
2018-05-10T09:14:39.599Z,5.63
2018-05-10T09:17:07.050Z,4.43
2018-05-10T09:19:34.544Z,3.70
2018-05-10T09:22:02.792Z,3.10
2018-05-10T09:24:30.292Z,3.53
2018-05-10T09:26:57.770Z,3.50
2018-05-10T09:29:25.260Z,3.60
2018-05-10T09:31:52.753Z,3.20
2018-05-10T09:34:21.024Z,3.07
2018-05-10T09:36:49.261Z,2.73
2018-05-10T09:39:16.773Z,2.73
2018-05-10T09:41:44.263Z,2.90
2018-05-10T09:44:12.755Z,2.63
2018-05-10T09:46:40.489Z,2.30
2018-05-10T09:49:07.951Z,2.20
2018-05-10T09:51:35.456Z,1.90
2018-05-10T09:54:02.931Z,1.73
2018-05-10T09:56:31.395Z,1.87
2018-05-10T09:58:59.755Z,2.43
2018-05-10T10:01:27.249Z,2.50
2018-05-10T10:03:54.733Z,2.03
2018-05-10T10:06:22.251Z,2.12
2018-05-10T10:08:50.511Z,1.95
2018-05-10T10:11:17.998Z,2.37
2018-05-10T10:13:45.748Z,2.30
2018-05-10T10:16:14.173Z,1.90
2018-05-10T10:18:41.954Z,3.67
2018-05-10T10:21:09.468Z,2.70
2018-05-10T10:23:36.941Z,4.97
2018-05-10T10:26:04.459Z,3.35
2018-05-10T10:28:33.653Z,2.80
2018-05-10T10:31:01.136Z,3.07
2018-05-10T10:33:28.674Z,4.13
2018-05-10T10:35:57.021Z,4.07
2018-05-10T10:38:25.857Z,5.13
2018-05-10T10:40:53.366Z,3.37
2018-05-10T10:43:20.830Z,4.17
2018-05-10T10:45:49.108Z,5.20
2018-05-10T10:48:17.390Z,3.67
2018-05-10T10:50:45.728Z,4.20
2018-05-10T10:53:13.211Z,4.30
2018-05-10T10:55:41.474Z,4.50
2018-05-10T10:58:08.957Z,5.27
2018-05-10T11:00:37.205Z,4.70
2018-05-10T11:03:04.679Z,6.30
2018-05-10T11:05:33.377Z,6.57
2018-05-10T11:08:00.908Z,7.10
2018-05-10T11:10:28.355Z,6.67
2018-05-10T11:12:55.846Z,7.30
2018-05-10T11:15:23.342Z,7.80
2018-05-10T11:17:50.805Z,8.00
2018-05-10T11:20:18.302Z,9.03
2018-05-10T11:22:46.547Z,9.93
2018-05-10T11:25:14.056Z,11.27
2018-05-10T11:27:41.541Z,12.13
2018-05-10T11:30:09.057Z,11.67
2018-05-10T11:32:37.905Z,11.53
2018-05-10T11:35:05.367Z,10.83
2018-05-10T11:37:32.886Z,12.53
2018-05-10T11:40:00.359Z,12.40
2018-05-10T11:42:27.872Z,12.70
2018-05-10T11:44:55.354Z,13.27
2018-05-10T11:47:22.833Z,12.33
2018-05-10T11:49:50.331Z,11.50
2018-05-10T11:52:18.603Z,10.93
2018-05-10T11:54:46.082Z,13.17
2018-05-10T11:57:13.621Z,11.80
2018-05-10T11:59:41.199Z,11.47
2018-05-10T12:02:08.719Z,13.90
2018-05-10T12:04:36.250Z,13.70
2018-05-10T12:07:03.714Z,13.43
2018-05-10T12:09:31.317Z,13.37
2018-05-10T12:12:01.043Z,13.67
2018-05-10T12:14:28.542Z,15.53
2018-05-10T12:16:56.081Z,14.20
2018-05-10T12:19:23.685Z,15.87
2018-05-10T12:21:51.998Z,16.40
2018-05-10T12:24:20.293Z,16.63
2018-05-10T12:26:47.826Z,18.40
2018-05-10T12:29:15.337Z,17.13
2018-05-10T12:31:43.637Z,17.17
2018-05-10T12:34:11.962Z,16.10
2018-05-10T12:36:39.480Z,17.20
2018-05-10T12:39:06.965Z,18.60
2018-05-10T12:41:34.650Z,18.60
2018-05-10T12:44:02.267Z,19.23
2018-05-10T12:46:30.547Z,16.43
2018-05-10T12:48:58.942Z,16.23
2018-05-10T12:51:26.462Z,25.50
2018-05-10T12:53:54.440Z,16.03
2018-05-10T12:56:22.039Z,16.60
2018-05-10T12:58:49.429Z,16.47
2018-05-10T13:01:17.789Z,16.03
2018-05-10T13:03:46.993Z,16.53
2018-05-10T13:06:15.261Z,16.60
2018-05-10T13:08:43.664Z,16.40
2018-05-10T13:11:11.191Z,16.07
2018-05-10T13:13:40.292Z,16.93
2018-05-10T13:16:09.321Z,16.13
2018-05-10T13:18:36.784Z,15.67
2018-05-10T13:21:04.288Z,16.47
2018-05-10T13:23:31.761Z,15.83
2018-05-10T13:26:00.005Z,17.00
2018-05-10T13:28:27.525Z,16.33
2018-05-10T13:30:55.029Z,17.00
2018-05-10T13:33:23.393Z,16.57
2018-05-10T13:35:50.979Z,16.33
2018-05-10T13:38:18.724Z,16.93
2018-05-10T13:40:46.626Z,16.10
2018-05-10T13:43:14.130Z,17.73
2018-05-10T13:45:41.900Z,17.03
2018-05-10T13:48:09.415Z,17.13
2018-05-10T13:50:36.946Z,17.87
2018-05-10T13:53:05.399Z,16.10
2018-05-10T13:55:33.531Z,17.07
2018-05-10T13:58:01.150Z,18.20
2018-05-10T14:00:29.432Z,19.40
2018-05-10T14:02:57.688Z,17.83
2018-05-10T14:05:25.385Z,18.63
2018-05-10T14:07:52.939Z,19.10
2018-05-10T14:10:21.290Z,19.20
2018-05-10T14:12:49.105Z,19.77
2018-05-10T14:15:16.808Z,18.60
2018-05-10T14:17:44.429Z,18.03
2018-05-10T14:20:11.951Z,19.07
2018-05-10T14:22:40.385Z,18.47
2018-05-10T14:25:07.941Z,18.13
2018-05-10T14:27:38.287Z,16.23
2018-05-10T14:30:05.956Z,15.73
2018-05-10T14:32:33.525Z,15.00
2018-05-10T14:35:01.807Z,14.33
2018-05-10T14:37:30.436Z,13.70
2018-05-10T14:39:57.999Z,15.20
2018-05-10T14:42:25.863Z,14.00
2018-05-10T14:44:53.840Z,13.90
2018-05-10T14:47:21.343Z,13.40
2018-05-10T14:49:48.847Z,12.80
2018-05-10T14:52:16.325Z,13.50
2018-05-10T14:54:43.850Z,14.33
2018-05-10T14:57:11.521Z,13.50
2018-05-10T14:59:39.113Z,14.07
2018-05-10T15:02:07.366Z,13.67
2018-05-10T15:04:34.868Z,12.47
2018-05-10T15:07:02.379Z,12.60
2018-05-10T15:09:30.685Z,12.20
2018-05-10T15:11:58.920Z,11.30
2018-05-10T15:14:26.485Z,11.87
2018-05-10T15:16:54.704Z,11.10
2018-05-10T15:19:22.302Z,11.80
2018-05-10T15:21:49.811Z,10.93
2018-05-10T15:24:17.291Z,10.30
2018-05-10T15:26:44.867Z,10.27
2018-05-10T15:29:12.338Z,9.97
2018-05-10T15:31:39.907Z,10.17
2018-05-10T15:34:07.560Z,8.43
2018-05-10T15:39:09.051Z,7.43
2018-05-10T15:41:37.298Z,7.37
2018-05-10T15:44:04.785Z,7.60
2018-05-10T15:46:33.041Z,6.93
2018-05-10T15:49:00.598Z,9.33
2018-05-10T15:51:28.916Z,5.90
2018-05-10T15:53:56.461Z,6.27
2018-05-10T15:56:24.727Z,5.57
2018-05-10T15:58:52.990Z,5.77
2018-05-10T16:01:21.997Z,4.93
2018-05-10T16:03:50.244Z,5.10
2018-05-10T16:06:22.682Z,5.20
2018-05-10T16:08:50.175Z,4.37
2018-05-10T16:11:18.519Z,4.93
2018-05-10T16:13:46.597Z,4.33
2018-05-10T16:16:14.206Z,4.33
2018-05-10T16:18:43.400Z,4.63
2018-05-10T16:21:11.109Z,4.23
2018-05-10T16:23:38.711Z,4.40
2018-05-10T16:26:07.153Z,4.67
2018-05-10T16:28:34.750Z,4.20
2018-05-10T16:31:02.999Z,4.73
2018-05-10T16:33:30.484Z,4.60
2018-05-10T16:35:58.994Z,4.10
2018-05-10T16:38:26.517Z,4.30
2018-05-10T16:40:56.442Z,4.67
2018-05-10T16:43:25.343Z,5.10
2018-05-10T16:45:53.584Z,4.20
2018-05-10T16:48:21.167Z,4.90
2018-05-10T16:50:49.468Z,4.73
2018-05-10T16:53:17.538Z,4.77
2018-05-10T16:55:45.070Z,4.57
2018-05-10T16:58:13.327Z,4.03
2018-05-10T17:00:41.735Z,4.30
2018-05-10T17:03:09.266Z,4.23
2018-05-10T17:05:37.675Z,3.97
2018-05-10T17:08:05.146Z,4.47
2018-05-10T17:10:32.977Z,4.67
2018-05-10T17:13:01.215Z,4.50
2018-05-10T17:15:33.299Z,4.27
2018-05-10T17:18:01.581Z,3.80
2018-05-10T17:20:29.119Z,4.57
2018-05-10T17:22:56.565Z,3.33
2018-05-10T17:25:24.130Z,3.90
2018-05-10T17:27:54.459Z,3.60
2018-05-10T17:30:21.964Z,3.97
2018-05-10T17:32:49.455Z,3.63
2018-05-10T17:35:16.991Z,4.30
2018-05-10T17:37:44.585Z,3.97
2018-05-10T17:40:12.134Z,4.50
2018-05-10T17:42:39.610Z,4.27
2018-05-10T17:45:07.910Z,3.73
2018-05-10T17:47:35.412Z,4.00
2018-05-10T17:50:02.893Z,3.67
2018-05-10T17:52:30.434Z,3.70
2018-05-10T17:54:57.915Z,4.67
2018-05-10T17:57:25.498Z,3.87
2018-05-10T17:59:53.056Z,3.40
2018-05-10T18:02:20.605Z,3.47
2018-05-10T18:04:48.959Z,3.40
2018-05-10T18:07:17.992Z,3.20
2018-05-10T18:09:45.511Z,3.43
2018-05-10T18:12:13.189Z,3.33
2018-05-10T18:14:41.495Z,3.13
2018-05-10T18:17:09.050Z,3.43
2018-05-10T18:19:36.558Z,3.10
2018-05-10T18:22:04.931Z,3.00
2018-05-10T18:24:32.569Z,2.87
2018-05-10T18:27:00.093Z,3.03
2018-05-10T18:29:27.565Z,2.87
2018-05-10T18:31:55.119Z,2.90
2018-05-10T18:34:22.776Z,2.97
2018-05-10T18:36:50.266Z,3.00
2018-05-10T18:39:18.784Z,3.20
2018-05-10T18:41:47.028Z,3.27
2018-05-10T18:44:14.552Z,3.03
2018-05-10T18:46:42.096Z,3.30
2018-05-10T18:49:09.590Z,2.80
2018-05-10T18:51:37.067Z,3.07
2018-05-10T18:54:04.652Z,3.13
2018-05-10T18:56:32.888Z,3.10
2018-05-10T18:59:00.409Z,3.20
2018-05-10T19:01:27.952Z,3.90
2018-05-10T19:03:55.585Z,2.97
2018-05-10T19:06:23.920Z,2.80
2018-05-10T19:08:51.518Z,3.00
2018-05-10T19:11:19.901Z,2.77
2018-05-10T19:13:48.161Z,2.50
2018-05-10T19:16:15.693Z,3.00
2018-05-10T19:18:43.288Z,2.80
2018-05-10T19:21:11.770Z,2.43
2018-05-10T19:23:40.108Z,2.50
2018-05-10T19:26:07.649Z,3.63
2018-05-10T19:28:35.210Z,2.97
2018-05-10T19:31:02.705Z,2.70
2018-05-10T19:33:30.196Z,2.77
2018-05-10T19:35:57.800Z,2.43
2018-05-10T19:38:25.486Z,2.67
2018-05-10T19:40:53.379Z,2.43
2018-05-10T19:43:20.867Z,2.50
2018-05-10T19:45:48.509Z,2.27
2018-05-10T19:48:17.907Z,2.90
2018-05-10T19:50:47.228Z,2.83
2018-05-10T19:53:14.870Z,2.43
2018-05-10T19:55:42.525Z,3.20
2018-05-10T19:58:10.003Z,4.67
2018-05-10T20:00:37.595Z,3.20
2018-05-10T20:03:06.433Z,3.30
2018-05-10T20:05:34.094Z,2.90
2018-05-10T20:08:01.605Z,3.03
2018-05-10T20:10:30.332Z,3.00
2018-05-10T20:12:57.943Z,3.23
2018-05-10T20:15:25.446Z,3.57
2018-05-10T20:17:54.774Z,3.20
2018-05-10T20:20:22.268Z,3.47
2018-05-10T20:22:50.515Z,3.20
2018-05-10T20:25:18.078Z,3.77
2018-05-10T20:27:45.856Z,3.80
2018-05-10T20:30:13.433Z,3.77
2018-05-10T20:32:42.045Z,4.20
2018-05-10T20:35:09.576Z,4.37
2018-05-10T20:37:37.984Z,3.83
2018-05-10T20:40:05.558Z,3.90
2018-05-10T20:42:33.199Z,4.17
2018-05-10T20:45:00.697Z,3.90
2018-05-10T20:47:28.286Z,4.00
2018-05-10T20:49:55.769Z,3.93
2018-05-10T20:52:23.294Z,3.60
2018-05-10T20:54:51.597Z,3.80
2018-05-10T20:57:19.135Z,3.63
2018-05-10T20:59:46.630Z,4.37
2018-05-10T21:02:14.202Z,3.87
2018-05-10T21:04:41.717Z,3.60
2018-05-10T21:07:09.402Z,3.60
2018-05-10T21:09:39.876Z,4.40
2018-05-10T21:12:08.536Z,3.50
2018-05-10T21:14:36.181Z,3.40
2018-05-10T21:17:03.787Z,3.60
2018-05-10T21:19:32.065Z,3.73
2018-05-10T21:22:01.203Z,3.67
2018-05-10T21:24:28.702Z,3.70
2018-05-10T21:26:56.307Z,2.97
2018-05-10T21:29:23.913Z,3.23
2018-05-10T21:31:51.405Z,3.90
2018-05-10T21:34:19.046Z,3.90
2018-05-10T21:36:47.402Z,3.87
2018-05-10T21:39:14.966Z,4.00
2018-05-10T21:41:42.435Z,4.83
2018-05-10T21:44:10.695Z,4.53
2018-05-10T21:46:38.184Z,4.10
2018-05-10T21:49:05.697Z,4.60
2018-05-10T21:51:33.169Z,4.23
2018-05-10T21:54:01.426Z,3.67
2018-05-10T21:56:28.894Z,4.30
2018-05-10T21:58:56.380Z,4.50
2018-05-10T22:01:24.611Z,4.30
2018-05-10T22:03:52.086Z,4.33
2018-05-10T22:06:20.381Z,4.53
2018-05-10T22:08:47.949Z,4.73
2018-05-10T22:11:15.418Z,5.20
2018-05-10T22:13:42.903Z,5.20
2018-05-10T22:16:10.379Z,5.03
2018-05-10T22:18:37.902Z,5.13
2018-05-10T22:21:06.096Z,5.77
2018-05-10T22:23:33.619Z,6.00
2018-05-10T22:26:01.091Z,5.17
2018-05-10T22:28:28.590Z,5.80
2018-05-10T22:30:56.881Z,5.13
2018-05-10T22:33:25.105Z,5.73
2018-05-10T22:35:52.587Z,5.60
2018-05-10T22:38:20.082Z,6.10
2018-05-10T22:40:47.594Z,6.63
2018-05-10T22:43:15.071Z,6.90
2018-05-10T22:45:43.341Z,6.63
2018-05-10T22:48:11.591Z,6.77
2018-05-10T22:50:39.082Z,7.23
2018-05-10T22:53:07.338Z,8.03
2018-05-10T22:55:35.065Z,7.10
2018-05-10T22:58:02.761Z,7.60
2018-05-10T23:00:33.907Z,8.57
2018-05-10T23:03:02.400Z,7.87
2018-05-10T23:05:31.379Z,8.47
2018-05-10T23:08:00.605Z,8.00
2018-05-10T23:10:28.069Z,8.23
2018-05-10T23:12:55.545Z,8.57
2018-05-10T23:15:23.024Z,8.83
2018-05-10T23:17:50.568Z,9.50
2018-05-10T23:20:18.035Z,8.60
2018-05-10T23:22:45.506Z,9.10
2018-05-10T23:25:13.071Z,8.47
2018-05-10T23:27:40.565Z,9.07
2018-05-10T23:30:08.031Z,8.83
2018-05-10T23:32:35.516Z,9.63
2018-05-10T23:35:02.974Z,8.37
2018-05-10T23:37:30.459Z,9.47
2018-05-10T23:39:58.696Z,9.70
2018-05-10T23:42:26.173Z,9.27
2018-05-10T23:44:53.648Z,9.90
2018-05-10T23:47:21.883Z,10.10
2018-05-10T23:49:49.373Z,9.27
2018-05-10T23:52:18.428Z,9.40
2018-05-10T23:54:45.905Z,9.03
2018-05-10T23:57:14.867Z,8.63
2018-05-10T23:59:42.373Z,8.37
